sensor_id;sensor_type;location;lat;lon;timestamp;P1;durP1;ratioP1;P2;durP2;ratioP2
7324;SDS011;3703;48.016;7.802;2022-09-12T00:01:17;3.83;;;2.43;;
7324;SDS011;3703;48.016;7.802;2022-09-12T00:04:06;3.13;;;2.07;;
7324;SDS011;3703;48.016;7.802;2022-09-12T00:06:56;3.43;;;2.77;;
7324;SDS011;3703;48.016;7.802;2022-09-12T00:09:44;3.43;;;2.27;;
7324;SDS011;3703;48.016;7.802;2022-09-12T00:12:31;2.30;;;2.10;;
7324;SDS011;3703;48.016;7.802;2022-09-12T00:15:19;2.60;;;2.40;;
7324;SDS011;3703;48.016;7.802;2022-09-12T00:18:09;1.90;;;1.70;;
7324;SDS011;3703;48.016;7.802;2022-09-12T00:21:02;2.50;;;1.90;;
7324;SDS011;3703;48.016;7.802;2022-09-12T00:23:51;2.57;;;1.83;;
7324;SDS011;3703;48.016;7.802;2022-09-12T00:26:38;2.73;;;2.50;;
7324;SDS011;3703;48.016;7.802;2022-09-12T00:29:26;2.67;;;2.20;;
7324;SDS011;3703;48.016;7.802;2022-09-12T00:32:14;2.47;;;2.27;;
7324;SDS011;3703;48.016;7.802;2022-09-12T00:35:03;2.30;;;1.80;;
7324;SDS011;3703;48.016;7.802;2022-09-12T00:37:52;2.30;;;2.10;;
7324;SDS011;3703;48.016;7.802;2022-09-12T00:40:39;3.27;;;1.90;;
7324;SDS011;3703;48.016;7.802;2022-09-12T00:43:34;2.57;;;2.00;;
7324;SDS011;3703;48.016;7.802;2022-09-12T00:46:27;2.70;;;2.00;;
7324;SDS011;3703;48.016;7.802;2022-09-12T00:49:22;2.30;;;2.10;;
7324;SDS011;3703;48.016;7.802;2022-09-12T00:52:15;2.87;;;1.97;;
7324;SDS011;3703;48.016;7.802;2022-09-12T00:55:10;3.27;;;2.30;;
7324;SDS011;3703;48.016;7.802;2022-09-12T00:58:03;2.10;;;1.80;;
7324;SDS011;3703;48.016;7.802;2022-09-12T01:00:55;2.53;;;2.20;;
7324;SDS011;3703;48.016;7.802;2022-09-12T01:03:43;2.27;;;2.07;;
7324;SDS011;3703;48.016;7.802;2022-09-12T01:06:32;4.47;;;2.40;;
7324;SDS011;3703;48.016;7.802;2022-09-12T01:09:24;3.03;;;2.33;;
7324;SDS011;3703;48.016;7.802;2022-09-12T01:12:12;2.83;;;2.23;;
7324;SDS011;3703;48.016;7.802;2022-09-12T01:15:01;4.70;;;2.23;;
7324;SDS011;3703;48.016;7.802;2022-09-12T01:17:52;3.50;;;2.37;;
7324;SDS011;3703;48.016;7.802;2022-09-12T01:21:00;3.50;;;2.33;;
7324;SDS011;3703;48.016;7.802;2022-09-12T01:30:42;3.03;;;2.50;;
7324;SDS011;3703;48.016;7.802;2022-09-12T01:36:48;2.50;;;2.30;;
7324;SDS011;3703;48.016;7.802;2022-09-12T01:39:46;2.60;;;2.13;;
7324;SDS011;3703;48.016;7.802;2022-09-12T01:42:42;2.30;;;2.10;;
7324;SDS011;3703;48.016;7.802;2022-09-12T01:45:39;3.23;;;2.63;;
7324;SDS011;3703;48.016;7.802;2022-09-12T01:48:33;2.07;;;1.87;;
7324;SDS011;3703;48.016;7.802;2022-09-12T01:51:25;3.33;;;2.70;;
7324;SDS011;3703;48.016;7.802;2022-09-12T01:54:19;2.30;;;2.10;;
7324;SDS011;3703;48.016;7.802;2022-09-12T01:57:12;3.63;;;2.63;;
7324;SDS011;3703;48.016;7.802;2022-09-12T02:00:09;2.60;;;2.40;;
7324;SDS011;3703;48.016;7.802;2022-09-12T02:03:00;2.50;;;2.30;;
7324;SDS011;3703;48.016;7.802;2022-09-12T02:05:55;2.47;;;2.27;;
7324;SDS011;3703;48.016;7.802;2022-09-12T02:08:50;2.83;;;2.33;;
7324;SDS011;3703;48.016;7.802;2022-09-12T02:11:41;2.70;;;2.10;;
7324;SDS011;3703;48.016;7.802;2022-09-12T02:14:31;2.40;;;2.20;;
7324;SDS011;3703;48.016;7.802;2022-09-12T02:17:24;2.47;;;2.27;;
7324;SDS011;3703;48.016;7.802;2022-09-12T02:20:15;2.63;;;2.43;;
7324;SDS011;3703;48.016;7.802;2022-09-12T02:23:10;4.63;;;2.30;;
7324;SDS011;3703;48.016;7.802;2022-09-12T02:26:02;3.00;;;2.77;;
7324;SDS011;3703;48.016;7.802;2022-09-12T02:28:56;4.77;;;2.20;;
7324;SDS011;3703;48.016;7.802;2022-09-12T02:31:45;3.83;;;2.47;;
7324;SDS011;3703;48.016;7.802;2022-09-12T02:34:38;2.50;;;2.30;;
7324;SDS011;3703;48.016;7.802;2022-09-12T02:37:41;2.40;;;2.20;;
7324;SDS011;3703;48.016;7.802;2022-09-12T02:40:40;2.70;;;2.50;;
7324;SDS011;3703;48.016;7.802;2022-09-12T02:43:28;3.10;;;2.40;;
7324;SDS011;3703;48.016;7.802;2022-09-12T02:46:17;5.60;;;2.73;;
7324;SDS011;3703;48.016;7.802;2022-09-12T02:49:09;2.20;;;2.00;;
7324;SDS011;3703;48.016;7.802;2022-09-12T02:51:56;2.50;;;2.30;;
7324;SDS011;3703;48.016;7.802;2022-09-12T02:54:47;2.27;;;2.13;;
7324;SDS011;3703;48.016;7.802;2022-09-12T02:57:36;3.77;;;2.57;;
7324;SDS011;3703;48.016;7.802;2022-09-12T03:00:23;2.33;;;2.00;;
7324;SDS011;3703;48.016;7.802;2022-09-12T03:03:18;3.93;;;2.37;;
7324;SDS011;3703;48.016;7.802;2022-09-12T03:06:25;2.43;;;2.23;;
7324;SDS011;3703;48.016;7.802;2022-09-12T03:09:20;3.00;;;2.70;;
7324;SDS011;3703;48.016;7.802;2022-09-12T03:12:22;2.27;;;2.07;;
7324;SDS011;3703;48.016;7.802;2022-09-12T03:15:29;2.20;;;2.00;;
7324;SDS011;3703;48.016;7.802;2022-09-12T03:18:31;2.57;;;2.13;;
7324;SDS011;3703;48.016;7.802;2022-09-12T03:21:32;2.83;;;2.50;;
7324;SDS011;3703;48.016;7.802;2022-09-12T03:24:28;2.47;;;2.27;;
7324;SDS011;3703;48.016;7.802;2022-09-12T03:27:21;2.53;;;2.33;;
7324;SDS011;3703;48.016;7.802;2022-09-12T03:30:15;2.67;;;2.47;;
7324;SDS011;3703;48.016;7.802;2022-09-12T03:33:03;3.13;;;2.47;;
7324;SDS011;3703;48.016;7.802;2022-09-12T03:35:51;2.70;;;2.50;;
7324;SDS011;3703;48.016;7.802;2022-09-12T03:38:39;2.67;;;2.17;;
7324;SDS011;3703;48.016;7.802;2022-09-12T03:41:27;2.77;;;2.10;;
7324;SDS011;3703;48.016;7.802;2022-09-12T03:44:16;2.90;;;2.43;;
7324;SDS011;3703;48.016;7.802;2022-09-12T03:47:04;3.13;;;2.27;;
7324;SDS011;3703;48.016;7.802;2022-09-12T03:49:52;2.77;;;2.57;;
7324;SDS011;3703;48.016;7.802;2022-09-12T03:52:39;2.87;;;2.63;;
7324;SDS011;3703;48.016;7.802;2022-09-12T03:55:27;2.57;;;2.33;;
7324;SDS011;3703;48.016;7.802;2022-09-12T03:58:15;3.00;;;2.23;;
7324;SDS011;3703;48.016;7.802;2022-09-12T04:01:08;2.87;;;2.33;;
7324;SDS011;3703;48.016;7.802;2022-09-12T04:03:57;3.40;;;2.33;;
7324;SDS011;3703;48.016;7.802;2022-09-12T04:06:45;2.60;;;2.37;;
7324;SDS011;3703;48.016;7.802;2022-09-12T04:09:32;3.03;;;2.27;;
7324;SDS011;3703;48.016;7.802;2022-09-12T04:12:20;2.40;;;2.20;;
7324;SDS011;3703;48.016;7.802;2022-09-12T04:15:08;2.50;;;2.10;;
7324;SDS011;3703;48.016;7.802;2022-09-12T04:17:58;4.43;;;2.60;;
7324;SDS011;3703;48.016;7.802;2022-09-12T04:20:45;3.93;;;2.60;;
7324;SDS011;3703;48.016;7.802;2022-09-12T04:23:33;3.63;;;2.20;;
7324;SDS011;3703;48.016;7.802;2022-09-12T04:26:21;4.77;;;2.10;;
7324;SDS011;3703;48.016;7.802;2022-09-12T04:29:09;4.67;;;2.43;;
7324;SDS011;3703;48.016;7.802;2022-09-12T04:31:59;2.63;;;2.20;;
7324;SDS011;3703;48.016;7.802;2022-09-12T04:34:49;2.40;;;2.20;;
7324;SDS011;3703;48.016;7.802;2022-09-12T04:37:38;3.37;;;2.40;;
7324;SDS011;3703;48.016;7.802;2022-09-12T04:40:25;2.47;;;2.23;;
7324;SDS011;3703;48.016;7.802;2022-09-12T04:43:16;3.20;;;2.10;;
7324;SDS011;3703;48.016;7.802;2022-09-12T04:46:04;2.20;;;2.00;;
7324;SDS011;3703;48.016;7.802;2022-09-12T04:48:52;2.70;;;2.43;;
7324;SDS011;3703;48.016;7.802;2022-09-12T04:51:41;3.87;;;2.40;;
7324;SDS011;3703;48.016;7.802;2022-09-12T04:54:29;3.43;;;2.40;;
7324;SDS011;3703;48.016;7.802;2022-09-12T04:57:17;4.07;;;2.50;;
7324;SDS011;3703;48.016;7.802;2022-09-12T05:00:05;5.77;;;2.67;;
7324;SDS011;3703;48.016;7.802;2022-09-12T05:02:57;3.60;;;2.50;;
7324;SDS011;3703;48.016;7.802;2022-09-12T05:05:45;3.20;;;2.60;;
7324;SDS011;3703;48.016;7.802;2022-09-12T05:08:34;4.53;;;2.50;;
7324;SDS011;3703;48.016;7.802;2022-09-12T05:11:22;3.93;;;2.33;;
7324;SDS011;3703;48.016;7.802;2022-09-12T05:14:12;3.33;;;2.77;;
7324;SDS011;3703;48.016;7.802;2022-09-12T05:17:00;3.80;;;2.50;;
7324;SDS011;3703;48.016;7.802;2022-09-12T05:19:50;3.63;;;2.43;;
7324;SDS011;3703;48.016;7.802;2022-09-12T05:22:38;4.27;;;3.00;;
7324;SDS011;3703;48.016;7.802;2022-09-12T05:25:26;3.27;;;2.97;;
7324;SDS011;3703;48.016;7.802;2022-09-12T05:28:14;7.10;;;3.20;;
7324;SDS011;3703;48.016;7.802;2022-09-12T05:31:03;3.53;;;2.77;;
7324;SDS011;3703;48.016;7.802;2022-09-12T05:33:53;2.57;;;2.33;;
7324;SDS011;3703;48.016;7.802;2022-09-12T05:36:42;4.30;;;2.80;;
7324;SDS011;3703;48.016;7.802;2022-09-12T05:39:29;5.87;;;2.50;;
7324;SDS011;3703;48.016;7.802;2022-09-12T05:42:18;5.00;;;2.40;;
7324;SDS011;3703;48.016;7.802;2022-09-12T05:45:06;8.47;;;3.83;;
7324;SDS011;3703;48.016;7.802;2022-09-12T05:47:54;3.57;;;2.97;;
7324;SDS011;3703;48.016;7.802;2022-09-12T05:50:42;9.00;;;3.90;;
7324;SDS011;3703;48.016;7.802;2022-09-12T05:53:30;5.47;;;3.13;;
7324;SDS011;3703;48.016;7.802;2022-09-12T05:56:19;3.83;;;3.33;;
7324;SDS011;3703;48.016;7.802;2022-09-12T05:59:11;5.30;;;3.70;;
7324;SDS011;3703;48.016;7.802;2022-09-12T06:02:01;5.93;;;3.27;;
7324;SDS011;3703;48.016;7.802;2022-09-12T06:04:48;6.40;;;3.20;;
7324;SDS011;3703;48.016;7.802;2022-09-12T06:07:36;6.23;;;4.53;;
7324;SDS011;3703;48.016;7.802;2022-09-12T06:10:23;4.83;;;3.43;;
7324;SDS011;3703;48.016;7.802;2022-09-12T06:13:11;3.90;;;3.47;;
7324;SDS011;3703;48.016;7.802;2022-09-12T06:16:04;6.43;;;3.23;;
7324;SDS011;3703;48.016;7.802;2022-09-12T06:18:54;4.27;;;3.47;;
7324;SDS011;3703;48.016;7.802;2022-09-12T06:21:43;6.00;;;3.50;;
7324;SDS011;3703;48.016;7.802;2022-09-12T06:24:32;4.20;;;3.33;;
7324;SDS011;3703;48.016;7.802;2022-09-12T06:27:19;3.73;;;3.43;;
7324;SDS011;3703;48.016;7.802;2022-09-12T06:30:07;3.47;;;3.17;;
7324;SDS011;3703;48.016;7.802;2022-09-12T06:32:57;3.90;;;2.90;;
7324;SDS011;3703;48.016;7.802;2022-09-12T06:35:45;3.40;;;2.60;;
7324;SDS011;3703;48.016;7.802;2022-09-12T06:38:32;4.13;;;3.17;;
7324;SDS011;3703;48.016;7.802;2022-09-12T06:41:20;4.17;;;2.97;;
7324;SDS011;3703;48.016;7.802;2022-09-12T06:44:08;3.27;;;2.97;;
7324;SDS011;3703;48.016;7.802;2022-09-12T06:47:00;3.80;;;3.20;;
7324;SDS011;3703;48.016;7.802;2022-09-12T06:49:49;4.40;;;3.43;;
7324;SDS011;3703;48.016;7.802;2022-09-12T06:52:37;3.70;;;2.77;;
7324;SDS011;3703;48.016;7.802;2022-09-12T06:55:24;4.90;;;2.87;;
7324;SDS011;3703;48.016;7.802;2022-09-12T06:58:12;4.20;;;3.80;;
7324;SDS011;3703;48.016;7.802;2022-09-12T07:01:00;3.40;;;3.10;;
7324;SDS011;3703;48.016;7.802;2022-09-12T07:03:49;2.90;;;2.60;;
7324;SDS011;3703;48.016;7.802;2022-09-12T07:06:40;5.27;;;3.57;;
7324;SDS011;3703;48.016;7.802;2022-09-12T07:09:29;3.47;;;3.17;;
7324;SDS011;3703;48.016;7.802;2022-09-12T07:12:17;5.50;;;4.00;;
7324;SDS011;3703;48.016;7.802;2022-09-12T07:15:04;8.03;;;3.80;;
7324;SDS011;3703;48.016;7.802;2022-09-12T07:17:53;5.40;;;4.90;;
7324;SDS011;3703;48.016;7.802;2022-09-12T07:20:40;5.97;;;4.77;;
7324;SDS011;3703;48.016;7.802;2022-09-12T07:23:29;7.17;;;4.50;;
7324;SDS011;3703;48.016;7.802;2022-09-12T07:26:17;7.50;;;4.63;;
7324;SDS011;3703;48.016;7.802;2022-09-12T07:29:05;6.37;;;4.20;;
7324;SDS011;3703;48.016;7.802;2022-09-12T07:31:53;7.53;;;5.40;;
7324;SDS011;3703;48.016;7.802;2022-09-12T07:34:41;8.13;;;5.87;;
7324;SDS011;3703;48.016;7.802;2022-09-12T07:37:29;5.93;;;5.03;;
7324;SDS011;3703;48.016;7.802;2022-09-12T07:40:18;10.57;;;5.97;;
7324;SDS011;3703;48.016;7.802;2022-09-12T07:43:07;6.20;;;4.60;;
7324;SDS011;3703;48.016;7.802;2022-09-12T07:45:55;4.67;;;3.43;;
7324;SDS011;3703;48.016;7.802;2022-09-12T07:48:43;4.87;;;4.00;;
7324;SDS011;3703;48.016;7.802;2022-09-12T07:51:35;6.40;;;4.70;;
7324;SDS011;3703;48.016;7.802;2022-09-12T07:54:23;6.97;;;4.50;;
7324;SDS011;3703;48.016;7.802;2022-09-12T07:57:12;4.23;;;3.17;;
7324;SDS011;3703;48.016;7.802;2022-09-12T08:00:00;5.93;;;3.87;;
7324;SDS011;3703;48.016;7.802;2022-09-12T08:02:49;6.27;;;3.70;;
7324;SDS011;3703;48.016;7.802;2022-09-12T08:05:37;4.90;;;3.30;;
7324;SDS011;3703;48.016;7.802;2022-09-12T08:08:25;5.13;;;3.93;;
7324;SDS011;3703;48.016;7.802;2022-09-12T08:11:13;3.73;;;3.43;;
7324;SDS011;3703;48.016;7.802;2022-09-12T08:14:04;5.03;;;3.73;;
7324;SDS011;3703;48.016;7.802;2022-09-12T08:16:51;5.53;;;4.47;;
7324;SDS011;3703;48.016;7.802;2022-09-12T08:19:39;3.60;;;2.90;;
7324;SDS011;3703;48.016;7.802;2022-09-12T08:22:29;5.27;;;3.57;;
7324;SDS011;3703;48.016;7.802;2022-09-12T08:25:16;5.27;;;3.23;;
7324;SDS011;3703;48.016;7.802;2022-09-12T08:28:04;6.73;;;4.90;;
7324;SDS011;3703;48.016;7.802;2022-09-12T08:30:53;7.07;;;4.53;;
7324;SDS011;3703;48.016;7.802;2022-09-12T08:33:46;12.40;;;4.40;;
7324;SDS011;3703;48.016;7.802;2022-09-12T08:36:34;11.17;;;5.13;;
7324;SDS011;3703;48.016;7.802;2022-09-12T08:39:22;5.93;;;3.93;;
7324;SDS011;3703;48.016;7.802;2022-09-12T08:42:10;13.57;;;4.67;;
7324;SDS011;3703;48.016;7.802;2022-09-12T08:45:12;7.43;;;4.10;;
7324;SDS011;3703;48.016;7.802;2022-09-12T08:48:07;6.63;;;3.70;;
7324;SDS011;3703;48.016;7.802;2022-09-12T08:50:57;9.07;;;4.03;;
7324;SDS011;3703;48.016;7.802;2022-09-12T08:53:46;4.23;;;3.30;;
7324;SDS011;3703;48.016;7.802;2022-09-12T08:56:36;4.73;;;3.27;;
7324;SDS011;3703;48.016;7.802;2022-09-12T08:59:25;6.83;;;3.27;;
7324;SDS011;3703;48.016;7.802;2022-09-12T09:02:19;4.53;;;3.50;;
7324;SDS011;3703;48.016;7.802;2022-09-12T09:05:44;4.50;;;3.40;;
7324;SDS011;3703;48.016;7.802;2022-09-12T09:08:42;4.03;;;3.10;;
7324;SDS011;3703;48.016;7.802;2022-09-12T09:11:37;4.33;;;3.20;;
7324;SDS011;3703;48.016;7.802;2022-09-12T09:14:49;6.07;;;3.20;;
7324;SDS011;3703;48.016;7.802;2022-09-12T09:17:54;3.67;;;2.80;;
7324;SDS011;3703;48.016;7.802;2022-09-12T09:20:50;3.37;;;3.03;;
7324;SDS011;3703;48.016;7.802;2022-09-12T09:23:41;2.57;;;2.37;;
7324;SDS011;3703;48.016;7.802;2022-09-12T09:26:36;4.70;;;3.03;;
7324;SDS011;3703;48.016;7.802;2022-09-12T09:29:32;2.77;;;2.40;;
7324;SDS011;3703;48.016;7.802;2022-09-12T09:32:25;4.00;;;2.50;;
7324;SDS011;3703;48.016;7.802;2022-09-12T09:35:16;3.93;;;2.60;;
7324;SDS011;3703;48.016;7.802;2022-09-12T09:38:17;3.87;;;2.70;;
7324;SDS011;3703;48.016;7.802;2022-09-12T09:41:15;2.83;;;2.20;;
7324;SDS011;3703;48.016;7.802;2022-09-12T09:44:18;2.67;;;2.37;;
7324;SDS011;3703;48.016;7.802;2022-09-12T09:47:08;4.13;;;3.00;;
7324;SDS011;3703;48.016;7.802;2022-09-12T09:49:57;2.60;;;2.40;;
7324;SDS011;3703;48.016;7.802;2022-09-12T09:52:45;2.87;;;2.60;;
7324;SDS011;3703;48.016;7.802;2022-09-12T09:55:37;3.07;;;2.50;;
7324;SDS011;3703;48.016;7.802;2022-09-12T09:58:29;2.60;;;2.40;;
7324;SDS011;3703;48.016;7.802;2022-09-12T10:01:17;5.37;;;3.33;;
7324;SDS011;3703;48.016;7.802;2022-09-12T10:04:08;4.23;;;2.97;;
7324;SDS011;3703;48.016;7.802;2022-09-12T10:07:05;6.47;;;3.00;;
7324;SDS011;3703;48.016;7.802;2022-09-12T10:10:04;4.97;;;3.23;;
7324;SDS011;3703;48.016;7.802;2022-09-12T10:13:22;3.93;;;2.77;;
7324;SDS011;3703;48.016;7.802;2022-09-12T10:16:19;3.83;;;2.83;;
7324;SDS011;3703;48.016;7.802;2022-09-12T10:19:10;4.37;;;3.03;;
7324;SDS011;3703;48.016;7.802;2022-09-12T10:22:12;3.83;;;3.27;;
7324;SDS011;3703;48.016;7.802;2022-09-12T10:25:04;4.27;;;3.30;;
7324;SDS011;3703;48.016;7.802;2022-09-12T10:28:01;3.93;;;3.47;;
7324;SDS011;3703;48.016;7.802;2022-09-12T10:30:51;4.87;;;3.80;;
7324;SDS011;3703;48.016;7.802;2022-09-12T10:33:41;2.43;;;2.20;;
7324;SDS011;3703;48.016;7.802;2022-09-12T10:36:37;6.33;;;3.33;;
7324;SDS011;3703;48.016;7.802;2022-09-12T10:39:26;3.17;;;2.77;;
7324;SDS011;3703;48.016;7.802;2022-09-12T10:42:13;3.67;;;2.57;;
7324;SDS011;3703;48.016;7.802;2022-09-12T10:45:25;6.43;;;3.10;;
7324;SDS011;3703;48.016;7.802;2022-09-12T10:48:26;8.07;;;3.13;;
7324;SDS011;3703;48.016;7.802;2022-09-12T10:51:25;4.83;;;3.00;;
7324;SDS011;3703;48.016;7.802;2022-09-12T10:54:15;2.70;;;2.50;;
7324;SDS011;3703;48.016;7.802;2022-09-12T10:57:13;2.03;;;1.83;;
7324;SDS011;3703;48.016;7.802;2022-09-12T11:00:48;2.63;;;2.00;;
7324;SDS011;3703;48.016;7.802;2022-09-12T11:03:51;2.53;;;2.10;;
7324;SDS011;3703;48.016;7.802;2022-09-12T11:07:09;2.30;;;1.97;;
7324;SDS011;3703;48.016;7.802;2022-09-12T11:10:27;1.70;;;1.60;;
7324;SDS011;3703;48.016;7.802;2022-09-12T11:13:28;5.03;;;2.37;;
7324;SDS011;3703;48.016;7.802;2022-09-12T11:16:39;2.67;;;1.97;;
7324;SDS011;3703;48.016;7.802;2022-09-12T11:19:47;3.33;;;1.83;;
7324;SDS011;3703;48.016;7.802;2022-09-12T11:23:16;1.73;;;1.63;;
7324;SDS011;3703;48.016;7.802;2022-09-12T11:26:37;1.60;;;1.50;;
7324;SDS011;3703;48.016;7.802;2022-09-12T11:29:44;1.97;;;1.50;;
7324;SDS011;3703;48.016;7.802;2022-09-12T11:32:48;1.50;;;1.40;;
7324;SDS011;3703;48.016;7.802;2022-09-12T11:35:50;1.57;;;1.40;;
7324;SDS011;3703;48.016;7.802;2022-09-12T11:38:46;5.77;;;1.70;;
7324;SDS011;3703;48.016;7.802;2022-09-12T11:41:39;2.07;;;1.57;;
7324;SDS011;3703;48.016;7.802;2022-09-12T11:44:32;1.90;;;1.70;;
7324;SDS011;3703;48.016;7.802;2022-09-12T11:47:25;1.90;;;1.70;;
7324;SDS011;3703;48.016;7.802;2022-09-12T11:50:19;1.67;;;1.50;;
7324;SDS011;3703;48.016;7.802;2022-09-12T11:53:14;1.97;;;1.80;;
7324;SDS011;3703;48.016;7.802;2022-09-12T11:56:07;2.60;;;1.70;;
7324;SDS011;3703;48.016;7.802;2022-09-12T11:59:01;3.97;;;1.83;;
7324;SDS011;3703;48.016;7.802;2022-09-12T12:01:58;3.93;;;2.50;;
7324;SDS011;3703;48.016;7.802;2022-09-12T12:04:55;2.50;;;2.17;;
7324;SDS011;3703;48.016;7.802;2022-09-12T12:07:54;2.03;;;1.80;;
7324;SDS011;3703;48.016;7.802;2022-09-12T12:10:47;2.10;;;1.80;;
7324;SDS011;3703;48.016;7.802;2022-09-12T12:13:39;2.03;;;1.37;;
7324;SDS011;3703;48.016;7.802;2022-09-12T12:16:33;1.97;;;1.57;;
7324;SDS011;3703;48.016;7.802;2022-09-12T12:19:30;1.70;;;1.60;;
7324;SDS011;3703;48.016;7.802;2022-09-12T12:22:21;1.83;;;1.47;;
7324;SDS011;3703;48.016;7.802;2022-09-12T12:28:58;2.00;;;1.80;;
7324;SDS011;3703;48.016;7.802;2022-09-12T12:38:25;2.50;;;1.40;;
7324;SDS011;3703;48.016;7.802;2022-09-12T12:44:48;2.67;;;1.90;;
7324;SDS011;3703;48.016;7.802;2022-09-12T12:47:38;1.23;;;1.13;;
7324;SDS011;3703;48.016;7.802;2022-09-12T12:50:30;1.30;;;1.20;;
7324;SDS011;3703;48.016;7.802;2022-09-12T12:53:19;1.40;;;1.20;;
7324;SDS011;3703;48.016;7.802;2022-09-12T12:56:24;2.00;;;1.30;;
7324;SDS011;3703;48.016;7.802;2022-09-12T12:59:20;2.27;;;1.30;;
7324;SDS011;3703;48.016;7.802;2022-09-12T13:02:14;1.57;;;1.10;;
7324;SDS011;3703;48.016;7.802;2022-09-12T13:05:15;2.03;;;1.40;;
7324;SDS011;3703;48.016;7.802;2022-09-12T13:08:07;2.23;;;1.50;;
7324;SDS011;3703;48.016;7.802;2022-09-12T13:11:10;1.43;;;1.33;;
7324;SDS011;3703;48.016;7.802;2022-09-12T13:17:34;2.30;;;1.40;;
7324;SDS011;3703;48.016;7.802;2022-09-12T13:20:28;4.27;;;1.47;;
7324;SDS011;3703;48.016;7.802;2022-09-12T13:23:20;1.80;;;1.50;;
7324;SDS011;3703;48.016;7.802;2022-09-12T13:26:11;2.93;;;1.30;;
7324;SDS011;3703;48.016;7.802;2022-09-12T13:29:10;1.77;;;1.53;;
7324;SDS011;3703;48.016;7.802;2022-09-12T13:32:02;3.40;;;1.50;;
7324;SDS011;3703;48.016;7.802;2022-09-12T13:34:54;2.67;;;1.30;;
7324;SDS011;3703;48.016;7.802;2022-09-12T13:38:01;2.20;;;1.30;;
7324;SDS011;3703;48.016;7.802;2022-09-12T13:41:01;2.13;;;1.50;;
7324;SDS011;3703;48.016;7.802;2022-09-12T13:44:10;1.63;;;1.40;;
7324;SDS011;3703;48.016;7.802;2022-09-12T13:47:03;1.97;;;1.37;;
7324;SDS011;3703;48.016;7.802;2022-09-12T13:49:51;4.30;;;1.40;;
7324;SDS011;3703;48.016;7.802;2022-09-12T13:52:40;1.63;;;1.30;;
7324;SDS011;3703;48.016;7.802;2022-09-12T13:55:36;3.00;;;1.40;;
7324;SDS011;3703;48.016;7.802;2022-09-12T13:58:27;2.70;;;1.23;;
7324;SDS011;3703;48.016;7.802;2022-09-12T14:01:16;1.57;;;1.20;;
7324;SDS011;3703;48.016;7.802;2022-09-12T14:04:12;1.27;;;1.17;;
7324;SDS011;3703;48.016;7.802;2022-09-12T14:07:21;1.57;;;1.30;;
7324;SDS011;3703;48.016;7.802;2022-09-12T14:10:12;1.40;;;1.20;;
7324;SDS011;3703;48.016;7.802;2022-09-12T14:13:09;1.33;;;1.20;;
7324;SDS011;3703;48.016;7.802;2022-09-12T14:16:01;1.67;;;1.30;;
7324;SDS011;3703;48.016;7.802;2022-09-12T14:18:53;4.43;;;1.33;;
7324;SDS011;3703;48.016;7.802;2022-09-12T14:21:42;1.30;;;1.20;;
7324;SDS011;3703;48.016;7.802;2022-09-12T14:24:31;1.47;;;1.20;;
7324;SDS011;3703;48.016;7.802;2022-09-12T14:27:20;1.57;;;1.20;;
7324;SDS011;3703;48.016;7.802;2022-09-12T14:30:19;1.33;;;1.23;;
7324;SDS011;3703;48.016;7.802;2022-09-12T14:33:17;1.37;;;1.20;;
7324;SDS011;3703;48.016;7.802;2022-09-12T14:36:07;3.80;;;1.43;;
7324;SDS011;3703;48.016;7.802;2022-09-12T14:39:00;3.70;;;1.33;;
7324;SDS011;3703;48.016;7.802;2022-09-12T14:41:50;1.80;;;1.27;;
7324;SDS011;3703;48.016;7.802;2022-09-12T14:44:50;1.10;;;1.00;;
7324;SDS011;3703;48.016;7.802;2022-09-12T14:47:42;2.23;;;1.23;;
7324;SDS011;3703;48.016;7.802;2022-09-12T14:50:36;1.67;;;1.10;;
7324;SDS011;3703;48.016;7.802;2022-09-12T14:53:25;2.63;;;1.40;;
7324;SDS011;3703;48.016;7.802;2022-09-12T14:56:20;1.57;;;1.30;;
7324;SDS011;3703;48.016;7.802;2022-09-12T14:59:27;1.20;;;1.10;;
7324;SDS011;3703;48.016;7.802;2022-09-12T15:02:23;1.50;;;1.40;;
7324;SDS011;3703;48.016;7.802;2022-09-12T15:05:16;1.20;;;1.10;;
7324;SDS011;3703;48.016;7.802;2022-09-12T15:08:12;1.30;;;1.20;;
7324;SDS011;3703;48.016;7.802;2022-09-12T15:11:01;1.13;;;1.13;;
7324;SDS011;3703;48.016;7.802;2022-09-12T15:13:53;1.40;;;1.30;;
7324;SDS011;3703;48.016;7.802;2022-09-12T15:16:41;2.77;;;1.50;;
7324;SDS011;3703;48.016;7.802;2022-09-12T15:19:28;1.50;;;1.20;;
7324;SDS011;3703;48.016;7.802;2022-09-12T15:22:16;2.40;;;1.23;;
7324;SDS011;3703;48.016;7.802;2022-09-12T15:25:05;1.50;;;1.40;;
7324;SDS011;3703;48.016;7.802;2022-09-12T15:27:55;1.80;;;1.40;;
7324;SDS011;3703;48.016;7.802;2022-09-12T15:30:44;2.80;;;1.27;;
7324;SDS011;3703;48.016;7.802;2022-09-12T15:33:34;1.50;;;1.13;;
7324;SDS011;3703;48.016;7.802;2022-09-12T15:36:21;1.90;;;1.47;;
7324;SDS011;3703;48.016;7.802;2022-09-12T15:39:10;2.00;;;1.20;;
7324;SDS011;3703;48.016;7.802;2022-09-12T15:41:57;1.30;;;1.20;;
7324;SDS011;3703;48.016;7.802;2022-09-12T15:44:45;1.43;;;1.00;;
7324;SDS011;3703;48.016;7.802;2022-09-12T15:47:34;1.33;;;1.17;;
7324;SDS011;3703;48.016;7.802;2022-09-12T15:50:22;1.10;;;1.00;;
7324;SDS011;3703;48.016;7.802;2022-09-12T15:53:12;1.20;;;1.10;;
7324;SDS011;3703;48.016;7.802;2022-09-12T15:56:02;1.20;;;1.00;;
7324;SDS011;3703;48.016;7.802;2022-09-12T15:58:49;1.00;;;1.00;;
7324;SDS011;3703;48.016;7.802;2022-09-12T16:01:37;1.10;;;1.00;;
7324;SDS011;3703;48.016;7.802;2022-09-12T16:04:27;1.37;;;1.27;;
7324;SDS011;3703;48.016;7.802;2022-09-12T16:07:16;2.23;;;0.90;;
7324;SDS011;3703;48.016;7.802;2022-09-12T16:10:04;0.90;;;0.90;;
7324;SDS011;3703;48.016;7.802;2022-09-12T16:12:52;2.10;;;1.10;;
7324;SDS011;3703;48.016;7.802;2022-09-12T16:15:40;1.10;;;1.00;;
7324;SDS011;3703;48.016;7.802;2022-09-12T16:18:28;1.10;;;1.00;;
7324;SDS011;3703;48.016;7.802;2022-09-12T16:21:17;1.20;;;1.10;;
7324;SDS011;3703;48.016;7.802;2022-09-12T16:24:05;1.80;;;1.13;;
7324;SDS011;3703;48.016;7.802;2022-09-12T16:26:53;1.20;;;1.10;;
7324;SDS011;3703;48.016;7.802;2022-09-12T16:29:40;1.53;;;1.20;;
7324;SDS011;3703;48.016;7.802;2022-09-12T16:32:28;2.10;;;1.43;;
7324;SDS011;3703;48.016;7.802;2022-09-12T16:35:16;1.87;;;1.10;;
7324;SDS011;3703;48.016;7.802;2022-09-12T16:38:05;1.37;;;1.10;;
7324;SDS011;3703;48.016;7.802;2022-09-12T16:40:58;1.53;;;1.10;;
7324;SDS011;3703;48.016;7.802;2022-09-12T16:43:46;1.37;;;1.27;;
7324;SDS011;3703;48.016;7.802;2022-09-12T16:46:34;1.20;;;1.10;;
7324;SDS011;3703;48.016;7.802;2022-09-12T16:49:22;1.33;;;1.00;;
7324;SDS011;3703;48.016;7.802;2022-09-12T16:52:09;1.10;;;1.00;;
7324;SDS011;3703;48.016;7.802;2022-09-12T16:55:02;1.97;;;0.97;;
7324;SDS011;3703;48.016;7.802;2022-09-12T16:57:51;1.13;;;1.00;;
7324;SDS011;3703;48.016;7.802;2022-09-12T17:00:38;0.80;;;0.80;;
7324;SDS011;3703;48.016;7.802;2022-09-12T17:03:26;1.00;;;0.97;;
7324;SDS011;3703;48.016;7.802;2022-09-12T17:06:14;0.93;;;0.93;;
7324;SDS011;3703;48.016;7.802;2022-09-12T17:09:04;2.00;;;1.13;;
7324;SDS011;3703;48.016;7.802;2022-09-12T17:11:53;2.37;;;1.27;;
7324;SDS011;3703;48.016;7.802;2022-09-12T17:14:42;1.13;;;1.00;;
7324;SDS011;3703;48.016;7.802;2022-09-12T17:17:29;2.13;;;1.37;;
7324;SDS011;3703;48.016;7.802;2022-09-12T17:20:17;2.30;;;1.40;;
7324;SDS011;3703;48.016;7.802;2022-09-12T17:23:04;2.03;;;1.27;;
7324;SDS011;3703;48.016;7.802;2022-09-12T17:25:52;3.77;;;1.80;;
7324;SDS011;3703;48.016;7.802;2022-09-12T17:28:41;2.73;;;1.70;;
7324;SDS011;3703;48.016;7.802;2022-09-12T17:31:29;3.13;;;1.93;;
7324;SDS011;3703;48.016;7.802;2022-09-12T17:34:17;2.20;;;1.83;;
7324;SDS011;3703;48.016;7.802;2022-09-12T17:37:05;2.23;;;1.83;;
7324;SDS011;3703;48.016;7.802;2022-09-12T17:39:52;2.53;;;1.60;;
7324;SDS011;3703;48.016;7.802;2022-09-12T17:42:40;5.13;;;1.70;;
7324;SDS011;3703;48.016;7.802;2022-09-12T17:45:29;5.80;;;2.30;;
7324;SDS011;3703;48.016;7.802;2022-09-12T17:48:16;3.00;;;2.00;;
7324;SDS011;3703;48.016;7.802;2022-09-12T17:51:07;2.83;;;2.07;;
7324;SDS011;3703;48.016;7.802;2022-09-12T17:53:56;2.77;;;1.80;;
7324;SDS011;3703;48.016;7.802;2022-09-12T17:56:46;3.17;;;2.00;;
7324;SDS011;3703;48.016;7.802;2022-09-12T17:59:36;2.03;;;1.60;;
7324;SDS011;3703;48.016;7.802;2022-09-12T18:02:24;3.07;;;1.80;;
7324;SDS011;3703;48.016;7.802;2022-09-12T18:05:11;2.30;;;2.10;;
7324;SDS011;3703;48.016;7.802;2022-09-12T18:07:59;2.33;;;2.13;;
7324;SDS011;3703;48.016;7.802;2022-09-12T18:10:47;4.37;;;2.50;;
7324;SDS011;3703;48.016;7.802;2022-09-12T18:13:35;3.10;;;2.60;;
7324;SDS011;3703;48.016;7.802;2022-09-12T18:16:23;2.40;;;2.20;;